sensor_id;sensor_type;location;lat;lon;timestamp;temperature;humidity
20712;DHT22;10517;50.742;4.224;2023-02-26T00:00:09;0.50;99.90
20712;DHT22;10517;50.742;4.224;2023-02-26T00:02:42;0.50;99.90
20712;DHT22;10517;50.742;4.224;2023-02-26T00:05:11;0.50;99.90
20712;DHT22;10517;50.742;4.224;2023-02-26T00:07:37;0.60;99.90
20712;DHT22;10517;50.742;4.224;2023-02-26T00:10:10;0.50;99.90
20712;DHT22;10517;50.742;4.224;2023-02-26T00:12:36;0.60;99.90
20712;DHT22;10517;50.742;4.224;2023-02-26T00:15:03;0.50;99.90
20712;DHT22;10517;50.742;4.224;2023-02-26T00:17:41;0.50;99.90
20712;DHT22;10517;50.742;4.224;2023-02-26T00:20:09;0.50;99.90
20712;DHT22;10517;50.742;4.224;2023-02-26T00:22:37;0.50;99.90
20712;DHT22;10517;50.742;4.224;2023-02-26T00:25:03;0.40;99.90
20712;DHT22;10517;50.742;4.224;2023-02-26T00:27:29;0.40;99.90
20712;DHT22;10517;50.742;4.224;2023-02-26T00:29:55;0.40;99.90
20712;DHT22;10517;50.742;4.224;2023-02-26T00:32:21;0.30;99.90
20712;DHT22;10517;50.742;4.224;2023-02-26T00:34:47;0.30;99.90
20712;DHT22;10517;50.742;4.224;2023-02-26T00:37:26;0.20;99.90
20712;DHT22;10517;50.742;4.224;2023-02-26T00:42:37;0.20;99.90
20712;DHT22;10517;50.742;4.224;2023-02-26T00:45:03;0.30;99.90
20712;DHT22;10517;50.742;4.224;2023-02-26T00:55:07;0.20;99.90
20712;DHT22;10517;50.742;4.224;2023-02-26T00:57:33;0.20;99.90
20712;DHT22;10517;50.742;4.224;2023-02-26T00:59:58;0.20;99.90
20712;DHT22;10517;50.742;4.224;2023-02-26T01:02:24;0.20;99.90
20712;DHT22;10517;50.742;4.224;2023-02-26T01:04:50;0.10;99.90
20712;DHT22;10517;50.742;4.224;2023-02-26T01:07:18;0.10;99.90
20712;DHT22;10517;50.742;4.224;2023-02-26T01:09:47;0.10;99.90
20712;DHT22;10517;50.742;4.224;2023-02-26T01:12:13;0.10;99.90
20712;DHT22;10517;50.742;4.224;2023-02-26T01:14:39;0.10;99.90
20712;DHT22;10517;50.742;4.224;2023-02-26T01:19:48;0.00;99.90
20712;DHT22;10517;50.742;4.224;2023-02-26T01:22:39;0.00;99.90
20712;DHT22;10517;50.742;4.224;2023-02-26T01:25:12;0.00;99.90
20712;DHT22;10517;50.742;4.224;2023-02-26T01:27:39;0.00;99.90
20712;DHT22;10517;50.742;4.224;2023-02-26T01:30:06;-0.10;99.90
20712;DHT22;10517;50.742;4.224;2023-02-26T01:35:06;-0.10;99.90
20712;DHT22;10517;50.742;4.224;2023-02-26T01:38:03;-0.10;99.90
20712;DHT22;10517;50.742;4.224;2023-02-26T01:41:12;-0.20;99.90
20712;DHT22;10517;50.742;4.224;2023-02-26T01:49:24;-0.10;99.90
20712;DHT22;10517;50.742;4.224;2023-02-26T01:51:56;-0.20;99.90
20712;DHT22;10517;50.742;4.224;2023-02-26T01:54:26;-0.20;99.90
20712;DHT22;10517;50.742;4.224;2023-02-26T01:56:56;-0.20;99.90
20712;DHT22;10517;50.742;4.224;2023-02-26T01:59:23;-0.20;99.90
20712;DHT22;10517;50.742;4.224;2023-02-26T02:01:59;-0.20;99.90
20712;DHT22;10517;50.742;4.224;2023-02-26T02:04:26;-0.20;99.90
20712;DHT22;10517;50.742;4.224;2023-02-26T02:06:53;-0.30;99.90
20712;DHT22;10517;50.742;4.224;2023-02-26T02:09:19;-0.30;99.90
20712;DHT22;10517;50.742;4.224;2023-02-26T02:15:02;-0.30;99.90
20712;DHT22;10517;50.742;4.224;2023-02-26T02:17:49;-0.20;99.90
20712;DHT22;10517;50.742;4.224;2023-02-26T02:26:12;-0.30;99.90
20712;DHT22;10517;50.742;4.224;2023-02-26T02:31:39;-0.40;99.90
20712;DHT22;10517;50.742;4.224;2023-02-26T02:34:25;-0.40;99.90
20712;DHT22;10517;50.742;4.224;2023-02-26T02:39:32;-0.30;99.90
20712;DHT22;10517;50.742;4.224;2023-02-26T02:42:03;-0.30;99.90
20712;DHT22;10517;50.742;4.224;2023-02-26T02:44:34;-0.30;99.90
20712;DHT22;10517;50.742;4.224;2023-02-26T02:47:01;-0.20;99.90
20712;DHT22;10517;50.742;4.224;2023-02-26T02:49:34;-0.20;99.90
20712;DHT22;10517;50.742;4.224;2023-02-26T02:52:11;-0.20;99.90
20712;DHT22;10517;50.742;4.224;2023-02-26T02:54:46;-0.10;99.90
20712;DHT22;10517;50.742;4.224;2023-02-26T02:57:23;-0.10;99.90
20712;DHT22;10517;50.742;4.224;2023-02-26T03:00:00;0.00;99.90
20712;DHT22;10517;50.742;4.224;2023-02-26T03:05:04;0.20;99.90
20712;DHT22;10517;50.742;4.224;2023-02-26T03:07:32;0.20;99.90
20712;DHT22;10517;50.742;4.224;2023-02-26T03:09:58;0.20;99.90
20712;DHT22;10517;50.742;4.224;2023-02-26T03:12:26;0.20;99.90
20712;DHT22;10517;50.742;4.224;2023-02-26T03:14:51;0.20;99.90
20712;DHT22;10517;50.742;4.224;2023-02-26T03:17:26;0.20;99.90
20712;DHT22;10517;50.742;4.224;2023-02-26T03:25:23;0.30;99.90
20712;DHT22;10517;50.742;4.224;2023-02-26T03:28:16;0.30;99.90
20712;DHT22;10517;50.742;4.224;2023-02-26T03:31:28;0.30;99.90
20712;DHT22;10517;50.742;4.224;2023-02-26T03:33:50;0.40;99.90
20712;DHT22;10517;50.742;4.224;2023-02-26T03:36:21;0.40;99.90
20712;DHT22;10517;50.742;4.224;2023-02-26T03:41:48;0.40;99.90
20712;DHT22;10517;50.742;4.224;2023-02-26T03:45:03;0.50;99.90
20712;DHT22;10517;50.742;4.224;2023-02-26T03:47:12;0.60;99.90
20712;DHT22;10517;50.742;4.224;2023-02-26T03:49:48;0.70;99.90
20712;DHT22;10517;50.742;4.224;2023-02-26T03:52:16;0.80;99.90
20712;DHT22;10517;50.742;4.224;2023-02-26T03:54:49;0.80;99.90
20712;DHT22;10517;50.742;4.224;2023-02-26T03:57:16;0.90;99.90
20712;DHT22;10517;50.742;4.224;2023-02-26T03:59:42;0.90;99.90
20712;DHT22;10517;50.742;4.224;2023-02-26T04:02:17;0.90;99.90
20712;DHT22;10517;50.742;4.224;2023-02-26T04:04:52;0.90;99.90
20712;DHT22;10517;50.742;4.224;2023-02-26T04:07:20;0.90;99.90
20712;DHT22;10517;50.742;4.224;2023-02-26T04:09:48;0.90;99.90
20712;DHT22;10517;50.742;4.224;2023-02-26T04:12:14;0.90;99.90
20712;DHT22;10517;50.742;4.224;2023-02-26T04:14:44;0.90;99.90
20712;DHT22;10517;50.742;4.224;2023-02-26T04:17:09;0.90;99.90
20712;DHT22;10517;50.742;4.224;2023-02-26T04:19:35;0.90;99.90
20712;DHT22;10517;50.742;4.224;2023-02-26T04:22:01;0.80;99.90
20712;DHT22;10517;50.742;4.224;2023-02-26T04:24:26;0.80;99.90
20712;DHT22;10517;50.742;4.224;2023-02-26T04:26:52;0.80;99.90
20712;DHT22;10517;50.742;4.224;2023-02-26T04:29:17;0.80;99.90
20712;DHT22;10517;50.742;4.224;2023-02-26T04:31:43;0.80;99.90
20712;DHT22;10517;50.742;4.224;2023-02-26T04:34:08;0.90;99.90
20712;DHT22;10517;50.742;4.224;2023-02-26T04:36:34;0.90;99.90
20712;DHT22;10517;50.742;4.224;2023-02-26T04:38:59;0.90;99.90
20712;DHT22;10517;50.742;4.224;2023-02-26T04:41:25;1.00;99.90
20712;DHT22;10517;50.742;4.224;2023-02-26T04:43:51;0.90;99.90
20712;DHT22;10517;50.742;4.224;2023-02-26T04:46:17;0.90;99.90
20712;DHT22;10517;50.742;4.224;2023-02-26T04:48:42;0.90;99.90
20712;DHT22;10517;50.742;4.224;2023-02-26T04:51:08;0.80;99.90
20712;DHT22;10517;50.742;4.224;2023-02-26T04:53:33;0.80;99.90
20712;DHT22;10517;50.742;4.224;2023-02-26T04:55:59;0.90;99.90
20712;DHT22;10517;50.742;4.224;2023-02-26T04:58:25;0.90;99.90
20712;DHT22;10517;50.742;4.224;2023-02-26T05:00:51;0.80;99.90
20712;DHT22;10517;50.742;4.224;2023-02-26T05:03:19;0.80;99.90
20712;DHT22;10517;50.742;4.224;2023-02-26T05:05:45;0.80;99.90
20712;DHT22;10517;50.742;4.224;2023-02-26T05:08:10;0.70;99.90
20712;DHT22;10517;50.742;4.224;2023-02-26T05:10:36;0.60;99.90
20712;DHT22;10517;50.742;4.224;2023-02-26T05:13:02;0.70;99.90
20712;DHT22;10517;50.742;4.224;2023-02-26T05:15:28;0.70;99.90
20712;DHT22;10517;50.742;4.224;2023-02-26T05:17:53;0.70;99.90
20712;DHT22;10517;50.742;4.224;2023-02-26T05:20:19;0.70;99.90
20712;DHT22;10517;50.742;4.224;2023-02-26T05:22:45;0.70;99.90
20712;DHT22;10517;50.742;4.224;2023-02-26T05:25:11;0.70;99.90
20712;DHT22;10517;50.742;4.224;2023-02-26T05:27:38;0.60;99.90
20712;DHT22;10517;50.742;4.224;2023-02-26T05:30:05;0.60;99.90
20712;DHT22;10517;50.742;4.224;2023-02-26T05:32:31;0.60;99.90
20712;DHT22;10517;50.742;4.224;2023-02-26T05:34:57;0.70;99.90
20712;DHT22;10517;50.742;4.224;2023-02-26T05:37:23;0.60;99.90
20712;DHT22;10517;50.742;4.224;2023-02-26T05:39:48;0.60;99.90
20712;DHT22;10517;50.742;4.224;2023-02-26T05:42:14;0.50;99.90
20712;DHT22;10517;50.742;4.224;2023-02-26T05:44:39;0.40;99.90
20712;DHT22;10517;50.742;4.224;2023-02-26T05:47:05;0.50;99.90
20712;DHT22;10517;50.742;4.224;2023-02-26T05:49:31;0.50;99.90
20712;DHT22;10517;50.742;4.224;2023-02-26T05:51:57;0.50;99.90
20712;DHT22;10517;50.742;4.224;2023-02-26T05:54:22;0.40;99.90
20712;DHT22;10517;50.742;4.224;2023-02-26T05:56:48;0.40;99.90
20712;DHT22;10517;50.742;4.224;2023-02-26T05:59:14;0.50;99.90
20712;DHT22;10517;50.742;4.224;2023-02-26T06:01:39;0.40;99.90
20712;DHT22;10517;50.742;4.224;2023-02-26T06:04:07;0.40;99.90
20712;DHT22;10517;50.742;4.224;2023-02-26T06:06:32;0.50;99.90
20712;DHT22;10517;50.742;4.224;2023-02-26T06:08:58;0.50;99.90
20712;DHT22;10517;50.742;4.224;2023-02-26T06:11:25;0.40;99.90
20712;DHT22;10517;50.742;4.224;2023-02-26T06:13:51;0.40;99.90
20712;DHT22;10517;50.742;4.224;2023-02-26T06:16:17;0.40;99.90
20712;DHT22;10517;50.742;4.224;2023-02-26T06:18:45;0.40;99.90
20712;DHT22;10517;50.742;4.224;2023-02-26T06:21:10;0.30;99.90
20712;DHT22;10517;50.742;4.224;2023-02-26T06:23:36;0.30;99.90
20712;DHT22;10517;50.742;4.224;2023-02-26T06:26:02;0.30;99.90
20712;DHT22;10517;50.742;4.224;2023-02-26T06:28:28;0.30;99.90
20712;DHT22;10517;50.742;4.224;2023-02-26T06:30:54;0.20;99.90
20712;DHT22;10517;50.742;4.224;2023-02-26T06:33:19;0.20;99.90
20712;DHT22;10517;50.742;4.224;2023-02-26T06:35:46;0.20;99.90
20712;DHT22;10517;50.742;4.224;2023-02-26T06:38:11;0.20;99.90
20712;DHT22;10517;50.742;4.224;2023-02-26T06:40:37;0.20;99.90
20712;DHT22;10517;50.742;4.224;2023-02-26T06:43:03;0.20;99.90
20712;DHT22;10517;50.742;4.224;2023-02-26T06:45:28;0.20;99.90
20712;DHT22;10517;50.742;4.224;2023-02-26T06:47:54;0.20;99.90
20712;DHT22;10517;50.742;4.224;2023-02-26T06:50:20;0.20;99.90
20712;DHT22;10517;50.742;4.224;2023-02-26T06:52:45;0.20;99.90
20712;DHT22;10517;50.742;4.224;2023-02-26T06:55:11;0.20;99.90
20712;DHT22;10517;50.742;4.224;2023-02-26T06:57:37;0.20;99.90
20712;DHT22;10517;50.742;4.224;2023-02-26T07:00:04;0.20;99.90
20712;DHT22;10517;50.742;4.224;2023-02-26T07:02:30;0.20;99.90
20712;DHT22;10517;50.742;4.224;2023-02-26T07:04:56;0.20;99.90
20712;DHT22;10517;50.742;4.224;2023-02-26T07:07:21;0.10;99.90
20712;DHT22;10517;50.742;4.224;2023-02-26T07:09:47;0.10;99.90
20712;DHT22;10517;50.742;4.224;2023-02-26T07:12:13;0.20;99.90
20712;DHT22;10517;50.742;4.224;2023-02-26T07:14:38;0.20;99.90
20712;DHT22;10517;50.742;4.224;2023-02-26T07:17:04;0.20;99.90
20712;DHT22;10517;50.742;4.224;2023-02-26T07:19:30;0.30;99.90
20712;DHT22;10517;50.742;4.224;2023-02-26T07:21:56;0.30;99.90
20712;DHT22;10517;50.742;4.224;2023-02-26T07:24:22;0.40;99.90
20712;DHT22;10517;50.742;4.224;2023-02-26T07:26:48;0.40;99.90
20712;DHT22;10517;50.742;4.224;2023-02-26T07:29:13;0.40;99.90
20712;DHT22;10517;50.742;4.224;2023-02-26T07:31:39;0.50;99.90
20712;DHT22;10517;50.742;4.224;2023-02-26T07:34:05;0.50;99.90
20712;DHT22;10517;50.742;4.224;2023-02-26T07:36:30;0.50;99.90
20712;DHT22;10517;50.742;4.224;2023-02-26T07:38:56;0.70;99.90
20712;DHT22;10517;50.742;4.224;2023-02-26T07:41:22;0.70;99.90
20712;DHT22;10517;50.742;4.224;2023-02-26T07:43:48;0.70;99.90
20712;DHT22;10517;50.742;4.224;2023-02-26T07:46:13;0.70;99.90
20712;DHT22;10517;50.742;4.224;2023-02-26T07:48:39;0.80;99.90
20712;DHT22;10517;50.742;4.224;2023-02-26T07:51:05;0.80;99.90
20712;DHT22;10517;50.742;4.224;2023-02-26T07:53:33;0.90;99.90
20712;DHT22;10517;50.742;4.224;2023-02-26T07:55:58;0.90;99.90
20712;DHT22;10517;50.742;4.224;2023-02-26T07:58:24;1.00;99.90
20712;DHT22;10517;50.742;4.224;2023-02-26T08:00:50;1.00;99.90
20712;DHT22;10517;50.742;4.224;2023-02-26T08:03:17;1.00;99.90
20712;DHT22;10517;50.742;4.224;2023-02-26T08:05:43;1.10;99.90
20712;DHT22;10517;50.742;4.224;2023-02-26T08:08:09;1.10;99.90
20712;DHT22;10517;50.742;4.224;2023-02-26T08:10:34;1.10;99.90
20712;DHT22;10517;50.742;4.224;2023-02-26T08:13:00;1.20;99.90
20712;DHT22;10517;50.742;4.224;2023-02-26T08:15:26;1.20;99.90
20712;DHT22;10517;50.742;4.224;2023-02-26T08:17:52;1.20;99.90
20712;DHT22;10517;50.742;4.224;2023-02-26T08:20:18;1.30;99.90
20712;DHT22;10517;50.742;4.224;2023-02-26T08:22:43;1.30;99.90
20712;DHT22;10517;50.742;4.224;2023-02-26T08:25:09;1.40;99.90
20712;DHT22;10517;50.742;4.224;2023-02-26T08:27:35;1.40;99.90
20712;DHT22;10517;50.742;4.224;2023-02-26T08:30:02;1.40;99.90
20712;DHT22;10517;50.742;4.224;2023-02-26T08:32:28;1.50;99.90
20712;DHT22;10517;50.742;4.224;2023-02-26T08:34:53;1.50;99.90
20712;DHT22;10517;50.742;4.224;2023-02-26T08:37:19;1.50;99.90
20712;DHT22;10517;50.742;4.224;2023-02-26T08:39:47;1.50;99.90
20712;DHT22;10517;50.742;4.224;2023-02-26T08:42:13;1.60;99.90
20712;DHT22;10517;50.742;4.224;2023-02-26T08:44:41;1.70;99.90
20712;DHT22;10517;50.742;4.224;2023-02-26T08:47:07;1.80;99.90
20712;DHT22;10517;50.742;4.224;2023-02-26T08:49:32;1.70;99.90
20712;DHT22;10517;50.742;4.224;2023-02-26T08:51:58;1.80;99.90
20712;DHT22;10517;50.742;4.224;2023-02-26T08:54:24;1.70;99.90
20712;DHT22;10517;50.742;4.224;2023-02-26T08:56:50;1.80;99.90
20712;DHT22;10517;50.742;4.224;2023-02-26T08:59:17;1.90;99.90
20712;DHT22;10517;50.742;4.224;2023-02-26T09:01:43;1.90;99.90
20712;DHT22;10517;50.742;4.224;2023-02-26T09:04:09;1.90;99.90
20712;DHT22;10517;50.742;4.224;2023-02-26T09:06:35;1.90;99.90
20712;DHT22;10517;50.742;4.224;2023-02-26T09:09:00;2.00;99.90
20712;DHT22;10517;50.742;4.224;2023-02-26T09:11:26;2.00;99.90
20712;DHT22;10517;50.742;4.224;2023-02-26T09:13:55;2.00;99.90
20712;DHT22;10517;50.742;4.224;2023-02-26T09:16:21;2.10;99.90
20712;DHT22;10517;50.742;4.224;2023-02-26T09:18:46;2.10;99.90
20712;DHT22;10517;50.742;4.224;2023-02-26T09:21:12;2.10;99.90
20712;DHT22;10517;50.742;4.224;2023-02-26T09:23:38;2.20;99.90
20712;DHT22;10517;50.742;4.224;2023-02-26T09:26:03;2.20;99.90
20712;DHT22;10517;50.742;4.224;2023-02-26T09:28:29;2.20;99.90
20712;DHT22;10517;50.742;4.224;2023-02-26T09:30:55;2.10;99.90
20712;DHT22;10517;50.742;4.224;2023-02-26T09:33:21;2.10;99.90
20712;DHT22;10517;50.742;4.224;2023-02-26T09:35:48;2.20;99.90
20712;DHT22;10517;50.742;4.224;2023-02-26T09:38:14;2.20;99.90
20712;DHT22;10517;50.742;4.224;2023-02-26T09:40:53;2.30;99.90
20712;DHT22;10517;50.742;4.224;2023-02-26T09:51:35;2.40;99.90
20712;DHT22;10517;50.742;4.224;2023-02-26T09:54:18;2.40;99.90
20712;DHT22;10517;50.742;4.224;2023-02-26T09:56:46;2.50;99.90
20712;DHT22;10517;50.742;4.224;2023-02-26T09:59:12;2.60;99.90
20712;DHT22;10517;50.742;4.224;2023-02-26T10:01:45;2.60;99.90
20712;DHT22;10517;50.742;4.224;2023-02-26T10:04:28;2.60;99.90
20712;DHT22;10517;50.742;4.224;2023-02-26T10:09:53;2.80;99.90
20712;DHT22;10517;50.742;4.224;2023-02-26T10:12:24;2.80;99.90
20712;DHT22;10517;50.742;4.224;2023-02-26T10:15:01;2.80;99.90
20712;DHT22;10517;50.742;4.224;2023-02-26T10:23:14;2.90;99.90
20712;DHT22;10517;50.742;4.224;2023-02-26T10:25:49;2.90;99.90
20712;DHT22;10517;50.742;4.224;2023-02-26T10:31:21;3.30;99.90
20712;DHT22;10517;50.742;4.224;2023-02-26T10:34:46;3.30;99.90
20712;DHT22;10517;50.742;4.224;2023-02-26T10:37:18;3.30;99.90
20712;DHT22;10517;50.742;4.224;2023-02-26T10:39:52;3.00;99.90
20712;DHT22;10517;50.742;4.224;2023-02-26T10:42:24;3.10;99.90
20712;DHT22;10517;50.742;4.224;2023-02-26T10:47:32;2.90;99.90
20712;DHT22;10517;50.742;4.224;2023-02-26T10:50:05;2.90;99.90
20712;DHT22;10517;50.742;4.224;2023-02-26T10:52:34;3.00;99.90
20712;DHT22;10517;50.742;4.224;2023-02-26T10:58:13;3.00;99.90
20712;DHT22;10517;50.742;4.224;2023-02-26T11:00:44;3.10;99.90
20712;DHT22;10517;50.742;4.224;2023-02-26T11:03:37;3.20;99.90
20712;DHT22;10517;50.742;4.224;2023-02-26T11:06:04;3.30;99.90
20712;DHT22;10517;50.742;4.224;2023-02-26T11:08:42;3.30;99.90
20712;DHT22;10517;50.742;4.224;2023-02-26T11:11:09;3.30;99.90
20712;DHT22;10517;50.742;4.224;2023-02-26T11:13:36;3.40;99.90
20712;DHT22;10517;50.742;4.224;2023-02-26T11:16:09;3.50;99.90
20712;DHT22;10517;50.742;4.224;2023-02-26T11:18:54;3.60;99.90
20712;DHT22;10517;50.742;4.224;2023-02-26T11:21:29;3.90;99.90
20712;DHT22;10517;50.742;4.224;2023-02-26T11:24:01;4.20;99.90
20712;DHT22;10517;50.742;4.224;2023-02-26T11:26:35;4.40;99.90
20712;DHT22;10517;50.742;4.224;2023-02-26T11:29:01;4.60;99.90
20712;DHT22;10517;50.742;4.224;2023-02-26T11:31:27;4.80;99.90
20712;DHT22;10517;50.742;4.224;2023-02-26T11:33:58;4.90;99.90
20712;DHT22;10517;50.742;4.224;2023-02-26T11:36:29;5.20;99.90
20712;DHT22;10517;50.742;4.224;2023-02-26T11:39:13;5.00;99.90
20712;DHT22;10517;50.742;4.224;2023-02-26T11:41:40;4.70;99.90
20712;DHT22;10517;50.742;4.224;2023-02-26T11:44:09;4.50;99.90
20712;DHT22;10517;50.742;4.224;2023-02-26T11:46:45;4.20;99.90
20712;DHT22;10517;50.742;4.224;2023-02-26T11:49:14;3.90;99.90
20712;DHT22;10517;50.742;4.224;2023-02-26T11:51:44;3.70;99.90
20712;DHT22;10517;50.742;4.224;2023-02-26T11:54:22;3.70;99.90
20712;DHT22;10517;50.742;4.224;2023-02-26T11:56:48;3.70;99.90
20712;DHT22;10517;50.742;4.224;2023-02-26T11:59:21;3.80;99.90
20712;DHT22;10517;50.742;4.224;2023-02-26T12:01:48;4.10;99.90
20712;DHT22;10517;50.742;4.224;2023-02-26T12:04:20;4.20;99.90
20712;DHT22;10517;50.742;4.224;2023-02-26T12:06:51;4.40;99.90
20712;DHT22;10517;50.742;4.224;2023-02-26T12:09:17;4.30;99.90
20712;DHT22;10517;50.742;4.224;2023-02-26T12:11:59;4.40;99.90
20712;DHT22;10517;50.742;4.224;2023-02-26T12:25:53;4.90;99.90
20712;DHT22;10517;50.742;4.224;2023-02-26T12:31:20;4.80;99.90
20712;DHT22;10517;50.742;4.224;2023-02-26T12:34:25;4.70;99.90
20712;DHT22;10517;50.742;4.224;2023-02-26T12:45:19;5.30;99.90
20712;DHT22;10517;50.742;4.224;2023-02-26T12:56:26;6.30;99.90
20712;DHT22;10517;50.742;4.224;2023-02-26T13:07:21;5.50;99.90
20712;DHT22;10517;50.742;4.224;2023-02-26T13:12:43;5.00;99.90
20712;DHT22;10517;50.742;4.224;2023-02-26T13:15:31;5.10;99.90
20712;DHT22;10517;50.742;4.224;2023-02-26T13:18:04;5.00;99.90
20712;DHT22;10517;50.742;4.224;2023-02-26T13:20:32;4.90;99.90
20712;DHT22;10517;50.742;4.224;2023-02-26T13:23:34;5.00;99.90
20712;DHT22;10517;50.742;4.224;2023-02-26T13:26:05;5.60;99.90
20712;DHT22;10517;50.742;4.224;2023-02-26T13:28:53;5.70;99.90
20712;DHT22;10517;50.742;4.224;2023-02-26T13:31:28;5.60;99.90
20712;DHT22;10517;50.742;4.224;2023-02-26T13:33:58;6.00;99.90
20712;DHT22;10517;50.742;4.224;2023-02-26T13:36:26;6.50;99.90
20712;DHT22;10517;50.742;4.224;2023-02-26T13:42:19;6.90;99.90
20712;DHT22;10517;50.742;4.224;2023-02-26T13:45:02;7.20;99.90
20712;DHT22;10517;50.742;4.224;2023-02-26T13:51:06;7.20;99.90
20712;DHT22;10517;50.742;4.224;2023-02-26T14:02:46;8.20;99.90
20712;DHT22;10517;50.742;4.224;2023-02-26T14:04:57;8.50;99.90
20712;DHT22;10517;50.742;4.224;2023-02-26T14:07:46;8.60;99.90
20712;DHT22;10517;50.742;4.224;2023-02-26T14:10:32;8.60;99.90
20712;DHT22;10517;50.742;4.224;2023-02-26T14:13:16;8.50;99.90
20712;DHT22;10517;50.742;4.224;2023-02-26T14:16:00;7.80;99.90
20712;DHT22;10517;50.742;4.224;2023-02-26T14:23:48;7.70;99.90
20712;DHT22;10517;50.742;4.224;2023-02-26T14:26:17;7.90;99.90
20712;DHT22;10517;50.742;4.224;2023-02-26T14:29:06;7.90;99.90
20712;DHT22;10517;50.742;4.224;2023-02-26T14:34:26;7.80;99.90
20712;DHT22;10517;50.742;4.224;2023-02-26T14:36:58;7.60;99.90
20712;DHT22;10517;50.742;4.224;2023-02-26T14:42:03;8.00;99.90
20712;DHT22;10517;50.742;4.224;2023-02-26T14:44:36;8.30;99.90
20712;DHT22;10517;50.742;4.224;2023-02-26T14:47:03;8.40;99.90
20712;DHT22;10517;50.742;4.224;2023-02-26T15:00:06;8.10;99.90
20712;DHT22;10517;50.742;4.224;2023-02-26T15:05:43;7.80;99.90
20712;DHT22;10517;50.742;4.224;2023-02-26T15:19:41;8.90;99.90
20712;DHT22;10517;50.742;4.224;2023-02-26T15:22:29;8.20;99.90
20712;DHT22;10517;50.742;4.224;2023-02-26T15:24:56;8.00;99.90
20712;DHT22;10517;50.742;4.224;2023-02-26T15:27:22;8.50;99.90
20712;DHT22;10517;50.742;4.224;2023-02-26T15:29:48;8.50;99.90
20712;DHT22;10517;50.742;4.224;2023-02-26T15:32:30;8.50;99.90
20712;DHT22;10517;50.742;4.224;2023-02-26T15:35:09;8.90;99.90
20712;DHT22;10517;50.742;4.224;2023-02-26T15:37:36;8.90;99.90
20712;DHT22;10517;50.742;4.224;2023-02-26T15:40:04;8.60;99.90
20712;DHT22;10517;50.742;4.224;2023-02-26T15:42:33;8.40;99.90
20712;DHT22;10517;50.742;4.224;2023-02-26T15:45:03;8.10;99.90
20712;DHT22;10517;50.742;4.224;2023-02-26T15:47:31;7.70;99.90
20712;DHT22;10517;50.742;4.224;2023-02-26T15:49:57;7.10;99.90
20712;DHT22;10517;50.742;4.224;2023-02-26T15:52:25;6.70;99.90
20712;DHT22;10517;50.742;4.224;2023-02-26T15:57:20;6.10;99.90
20712;DHT22;10517;50.742;4.224;2023-02-26T15:59:50;6.00;99.90
20712;DHT22;10517;50.742;4.224;2023-02-26T16:02:29;5.80;99.90
20712;DHT22;10517;50.742;4.224;2023-02-26T16:04:55;5.60;99.90
20712;DHT22;10517;50.742;4.224;2023-02-26T16:07:21;5.60;99.90
20712;DHT22;10517;50.742;4.224;2023-02-26T16:09:52;5.50;99.90
20712;DHT22;10517;50.742;4.224;2023-02-26T16:12:25;5.30;99.90
20712;DHT22;10517;50.742;4.224;2023-02-26T16:14:59;5.30;99.90
20712;DHT22;10517;50.742;4.224;2023-02-26T16:17:39;5.20;99.90
20712;DHT22;10517;50.742;4.224;2023-02-26T16:20:13;5.10;99.90
20712;DHT22;10517;50.742;4.224;2023-02-26T16:22:47;5.10;99.90
20712;DHT22;10517;50.742;4.224;2023-02-26T16:25:27;5.00;99.90
20712;DHT22;10517;50.742;4.224;2023-02-26T16:28:05;4.90;99.90
20712;DHT22;10517;50.742;4.224;2023-02-26T16:30:36;4.90;99.90
20712;DHT22;10517;50.742;4.224;2023-02-26T16:33:04;4.80;99.90
20712;DHT22;10517;50.742;4.224;2023-02-26T16:35:38;4.90;99.90
20712;DHT22;10517;50.742;4.224;2023-02-26T16:38:18;4.90;99.90
20712;DHT22;10517;50.742;4.224;2023-02-26T16:40:45;4.80;99.90
20712;DHT22;10517;50.742;4.224;2023-02-26T16:43:31;4.80;99.90
20712;DHT22;10517;50.742;4.224;2023-02-26T16:46:00;4.80;99.90
20712;DHT22;10517;50.742;4.224;2023-02-26T16:50:58;4.80;99.90
20712;DHT22;10517;50.742;4.224;2023-02-26T16:53:54;4.70;99.90
20712;DHT22;10517;50.742;4.224;2023-02-26T16:56:19;4.70;99.90
20712;DHT22;10517;50.742;4.224;2023-02-26T16:59:34;4.60;99.90
20712;DHT22;10517;50.742;4.224;2023-02-26T17:01:54;4.60;99.90
20712;DHT22;10517;50.742;4.224;2023-02-26T17:04:53;4.60;99.90
20712;DHT22;10517;50.742;4.224;2023-02-26T17:07:26;4.50;99.90
20712;DHT22;10517;50.742;4.224;2023-02-26T17:09:57;4.50;99.90
20712;DHT22;10517;50.742;4.224;2023-02-26T17:12:36;4.50;99.90
20712;DHT22;10517;50.742;4.224;2023-02-26T17:15:14;4.40;99.90
20712;DHT22;10517;50.742;4.224;2023-02-26T17:17:41;4.40;99.90
20712;DHT22;10517;50.742;4.224;2023-02-26T17:20:08;4.40;99.90
20712;DHT22;10517;50.742;4.224;2023-02-26T17:22:34;4.40;99.90
20712;DHT22;10517;50.742;4.224;2023-02-26T17:25:00;4.30;99.90
20712;DHT22;10517;50.742;4.224;2023-02-26T17:27:32;4.30;99.90
20712;DHT22;10517;50.742;4.224;2023-02-26T17:30:01;4.20;99.90
20712;DHT22;10517;50.742;4.224;2023-02-26T17:32:28;4.10;99.90
20712;DHT22;10517;50.742;4.224;2023-02-26T17:34:57;4.10;99.90
20712;DHT22;10517;50.742;4.224;2023-02-26T17:37:26;4.10;99.90
20712;DHT22;10517;50.742;4.224;2023-02-26T17:39:53;4.00;99.90
20712;DHT22;10517;50.742;4.224;2023-02-26T17:42:19;4.10;99.90
20712;DHT22;10517;50.742;4.224;2023-02-26T17:44:46;4.00;99.90
20712;DHT22;10517;50.742;4.224;2023-02-26T17:47:21;3.90;99.90
20712;DHT22;10517;50.742;4.224;2023-02-26T17:49:48;3.90;99.90
20712;DHT22;10517;50.742;4.224;2023-02-26T17:52:14;3.90;99.90
20712;DHT22;10517;50.742;4.224;2023-02-26T17:54:40;3.80;99.90
20712;DHT22;10517;50.742;4.224;2023-02-26T17:57:06;3.80;99.90
20712;DHT22;10517;50.742;4.224;2023-02-26T17:59:34;3.70;99.90
20712;DHT22;10517;50.742;4.224;2023-02-26T18:01:59;3.70;99.90
20712;DHT22;10517;50.742;4.224;2023-02-26T18:04:25;3.70;99.90
20712;DHT22;10517;50.742;4.224;2023-02-26T18:06:51;3.70;99.90
20712;DHT22;10517;50.742;4.224;2023-02-26T18:09:17;3.60;99.90
20712;DHT22;10517;50.742;4.224;2023-02-26T18:11:43;3.60;99.90
20712;DHT22;10517;50.742;4.224;2023-02-26T18:14:09;3.50;99.90
20712;DHT22;10517;50.742;4.224;2023-02-26T18:16:38;3.50;99.90
20712;DHT22;10517;50.742;4.224;2023-02-26T18:19:05;3.40;99.90
20712;DHT22;10517;50.742;4.224;2023-02-26T18:21:31;3.40;99.90
20712;DHT22;10517;50.742;4.224;2023-02-26T18:23:57;3.30;99.90
20712;DHT22;10517;50.742;4.224;2023-02-26T18:26:26;3.20;99.90
20712;DHT22;10517;50.742;4.224;2023-02-26T18:28:53;3.20;99.90
20712;DHT22;10517;50.742;4.224;2023-02-26T18:31:20;3.00;99.90
20712;DHT22;10517;50.742;4.224;2023-02-26T18:33:46;3.00;99.90
20712;DHT22;10517;50.742;4.224;2023-02-26T18:36:22;2.90;99.90
20712;DHT22;10517;50.742;4.224;2023-02-26T18:38:48;3.00;99.90
20712;DHT22;10517;50.742;4.224;2023-02-26T18:41:14;3.00;99.90
20712;DHT22;10517;50.742;4.224;2023-02-26T18:43:39;3.00;99.90
20712;DHT22;10517;50.742;4.224;2023-02-26T18:46:05;3.00;99.90
20712;DHT22;10517;50.742;4.224;2023-02-26T18:48:31;3.00;99.90
20712;DHT22;10517;50.742;4.224;2023-02-26T18:50:57;3.00;99.90
20712;DHT22;10517;50.742;4.224;2023-02-26T18:53:24;3.00;99.90